createdAt,value
2022-11-07T00:01:51.105Z,16.55
2022-11-07T00:06:44.571Z,16.46
2022-11-07T00:11:39.335Z,15.80
2022-11-07T00:16:33.742Z,16.32
2022-11-07T00:21:29.915Z,15.93
2022-11-07T00:26:23.077Z,16.01
2022-11-07T00:31:19.101Z,15.81
2022-11-07T00:36:18.350Z,15.62
2022-11-07T00:41:11.637Z,15.89
2022-11-07T00:46:06.818Z,15.56
2022-11-07T00:51:06.677Z,15.82
2022-11-07T00:56:02.374Z,15.63
2022-11-07T01:00:55.644Z,15.32
2022-11-07T01:05:57.833Z,15.63
2022-11-07T01:10:52.471Z,15.58
2022-11-07T01:15:47.541Z,15.35
2022-11-07T01:20:41.228Z,15.45
2022-11-07T01:25:34.355Z,14.75
2022-11-07T01:30:29.023Z,15.46
2022-11-07T01:35:22.223Z,15.32
2022-11-07T01:40:15.691Z,15.40
2022-11-07T01:45:16.234Z,15.37
2022-11-07T01:50:11.756Z,15.29
2022-11-07T01:55:10.083Z,15.11
2022-11-07T02:00:09.063Z,14.73
2022-11-07T02:05:04.651Z,14.97
2022-11-07T02:10:00.340Z,14.98
2022-11-07T02:14:53.688Z,14.99
2022-11-07T02:19:49.850Z,15.13
2022-11-07T02:24:44.569Z,14.45
2022-11-07T02:29:40.500Z,14.96
2022-11-07T02:34:33.792Z,15.01
2022-11-07T02:39:27.562Z,15.17
2022-11-07T02:44:22.408Z,14.56
2022-11-07T02:49:15.663Z,15.14
2022-11-07T02:54:08.953Z,14.42
2022-11-07T02:59:02.136Z,15.21
2022-11-07T03:03:56.841Z,15.07
2022-11-07T03:08:50.069Z,14.03
2022-11-07T03:13:43.257Z,15.14
2022-11-07T03:18:37.233Z,15.02
2022-11-07T03:23:32.160Z,14.90
2022-11-07T03:28:25.986Z,14.61
2022-11-07T03:33:19.347Z,14.87
2022-11-07T03:38:12.938Z,14.95
2022-11-07T03:43:07.494Z,13.97
2022-11-07T03:48:00.675Z,14.92
2022-11-07T03:52:54.146Z,14.77
2022-11-07T03:57:49.281Z,14.77
2022-11-07T04:02:44.577Z,14.95
2022-11-07T04:07:37.805Z,14.83
2022-11-07T04:12:48.733Z,14.82
2022-11-07T04:17:43.412Z,14.88
2022-11-07T04:22:36.688Z,14.75
2022-11-07T04:27:47.037Z,14.84
2022-11-07T04:32:40.239Z,14.60
2022-11-07T04:37:34.853Z,14.10
2022-11-07T04:42:28.084Z,14.69
2022-11-07T04:47:21.349Z,14.13
2022-11-07T04:52:14.944Z,13.78
2022-11-07T04:57:09.542Z,14.56
2022-11-07T05:02:02.976Z,14.10
2022-11-07T05:06:56.248Z,14.35
2022-11-07T05:11:50.057Z,14.41
2022-11-07T05:16:44.999Z,14.25
2022-11-07T05:21:38.217Z,14.10
2022-11-07T05:26:31.474Z,14.27
2022-11-07T05:31:24.759Z,14.46
2022-11-07T05:36:20.780Z,13.60
2022-11-07T05:41:15.393Z,14.50
2022-11-07T05:46:09.485Z,14.32
2022-11-07T05:51:03.149Z,14.61
2022-11-07T05:55:58.249Z,14.66
2022-11-07T06:00:54.263Z,14.58
2022-11-07T06:05:47.740Z,14.35
2022-11-07T06:10:43.049Z,14.69
2022-11-07T06:15:38.972Z,14.93
2022-11-07T06:20:32.437Z,14.75
2022-11-07T06:25:26.063Z,14.30
2022-11-07T06:30:19.373Z,14.64
2022-11-07T06:35:14.569Z,15.15
2022-11-07T06:40:09.349Z,15.19
2022-11-07T06:45:02.727Z,15.21
2022-11-07T06:49:55.776Z,15.24
2022-11-07T06:54:50.246Z,15.18
2022-11-07T06:59:47.650Z,14.97
2022-11-07T07:04:44.440Z,15.31
2022-11-07T07:09:37.504Z,15.15
2022-11-07T07:14:32.184Z,15.25
2022-11-07T07:19:25.255Z,15.31
2022-11-07T07:24:18.936Z,15.28
2022-11-07T07:29:12.154Z,15.21
2022-11-07T07:34:06.634Z,15.25
2022-11-07T07:39:00.143Z,15.25
2022-11-07T07:43:53.234Z,15.43
2022-11-07T07:48:47.075Z,15.48
2022-11-07T07:53:44.746Z,15.48
2022-11-07T07:58:37.807Z,15.27
2022-11-07T08:03:50.616Z,15.51
2022-11-07T08:08:45.361Z,15.34
2022-11-07T08:13:38.462Z,15.56
2022-11-07T08:18:31.731Z,15.40
2022-11-07T08:23:25.805Z,15.49
2022-11-07T08:28:21.538Z,15.47
2022-11-07T08:33:14.874Z,15.61
2022-11-07T08:38:08.178Z,15.66
2022-11-07T08:43:01.657Z,15.34
2022-11-07T08:47:59.525Z,15.71
2022-11-07T08:52:52.704Z,15.57
2022-11-07T08:57:45.760Z,15.60
2022-11-07T09:03:18.374Z,15.74
2022-11-07T09:07:55.848Z,15.61
2022-11-07T09:12:50.527Z,15.29
2022-11-07T09:17:43.550Z,15.72
2022-11-07T09:22:36.714Z,15.55
2022-11-07T09:27:31.149Z,15.78
2022-11-07T09:32:43.877Z,15.78
2022-11-07T09:37:39.002Z,15.75
2022-11-07T09:42:43.983Z,15.78
2022-11-07T09:47:40.860Z,15.71
2022-11-07T09:52:41.096Z,15.82
2022-11-07T09:57:36.930Z,15.82
2022-11-07T10:02:33.832Z,15.60
2022-11-07T10:07:43.102Z,15.78
2022-11-07T10:13:03.974Z,15.83
2022-11-07T10:18:09.029Z,15.87
2022-11-07T10:23:30.193Z,15.84
2022-11-07T10:28:27.635Z,15.97
2022-11-07T10:33:35.558Z,15.98
2022-11-07T10:38:30.752Z,16.13
2022-11-07T10:43:34.111Z,16.05
2022-11-07T10:48:29.520Z,15.98
2022-11-07T10:53:25.135Z,16.11
2022-11-07T10:58:21.627Z,16.23
2022-11-07T11:03:41.947Z,16.13
2022-11-07T11:08:38.648Z,16.23
2022-11-07T11:13:33.902Z,16.19
2022-11-07T11:18:28.627Z,16.37
2022-11-07T11:23:24.871Z,16.50
2022-11-07T11:28:25.075Z,16.57
2022-11-07T11:33:20.213Z,16.73
2022-11-07T11:38:18.612Z,16.58
2022-11-07T11:43:21.130Z,16.66
2022-11-07T11:48:25.060Z,16.62
2022-11-07T11:53:22.219Z,16.73
2022-11-07T11:58:24.660Z,17.01
2022-11-07T12:03:40.668Z,16.93
2022-11-07T12:08:50.642Z,17.06
2022-11-07T12:13:51.946Z,17.20
2022-11-07T12:18:49.468Z,17.26
2022-11-07T12:24:04.003Z,17.31
2022-11-07T12:29:06.810Z,17.19
2022-11-07T12:34:09.786Z,17.34
2022-11-07T12:39:28.113Z,17.38
2022-11-07T12:44:46.801Z,17.39
2022-11-07T12:50:05.147Z,17.32
2022-11-07T12:55:03.550Z,17.27
2022-11-07T13:00:00.585Z,17.49
2022-11-07T13:04:59.524Z,16.67
2022-11-07T13:09:58.382Z,17.50
2022-11-07T13:14:53.475Z,17.62
2022-11-07T13:19:47.619Z,17.60
2022-11-07T13:24:52.803Z,17.51
2022-11-07T13:29:45.859Z,17.43
2022-11-07T13:34:46.097Z,17.31
2022-11-07T13:39:39.050Z,17.19
2022-11-07T13:44:36.531Z,17.03
2022-11-07T13:49:37.692Z,16.96
2022-11-07T13:54:41.070Z,16.73
2022-11-07T13:59:43.359Z,16.62
2022-11-07T14:04:44.545Z,16.70
2022-11-07T14:09:53.771Z,16.40
2022-11-07T14:14:47.683Z,16.51
2022-11-07T14:19:40.756Z,16.44
2022-11-07T14:24:34.224Z,16.31
2022-11-07T14:29:29.073Z,16.13
2022-11-07T14:34:23.916Z,15.96
2022-11-07T14:39:20.088Z,15.88
2022-11-07T14:44:17.214Z,15.95
2022-11-07T14:49:26.343Z,15.65
2022-11-07T14:54:22.093Z,15.66
2022-11-07T14:59:17.251Z,15.37
2022-11-07T15:04:27.178Z,15.31
2022-11-07T15:09:31.456Z,15.04
2022-11-07T15:14:27.179Z,14.94
2022-11-07T15:19:24.570Z,14.82
2022-11-07T15:24:34.308Z,14.51
2022-11-07T15:29:32.879Z,13.82
2022-11-07T15:34:52.607Z,14.43
2022-11-07T15:39:43.131Z,13.84
2022-11-07T15:44:36.482Z,14.22
2022-11-07T15:49:32.036Z,14.11
2022-11-07T15:54:25.275Z,14.06
2022-11-07T15:59:21.060Z,14.01
2022-11-07T16:04:14.393Z,13.32
2022-11-07T16:09:15.049Z,13.85
2022-11-07T16:14:42.201Z,13.46
2022-11-07T16:19:32.067Z,13.30
2022-11-07T16:24:28.465Z,13.40
2022-11-07T16:29:21.802Z,12.92
2022-11-07T16:34:15.059Z,12.85
2022-11-07T16:39:14.719Z,13.28
2022-11-07T16:44:10.976Z,12.57
2022-11-07T16:49:13.821Z,12.68
2022-11-07T16:54:07.107Z,13.06
2022-11-07T16:59:00.930Z,12.85
2022-11-07T17:03:55.860Z,12.80
2022-11-07T17:08:49.608Z,12.54
2022-11-07T17:13:42.859Z,12.76
2022-11-07T17:18:36.057Z,12.45
2022-11-07T17:23:31.047Z,12.58
2022-11-07T17:28:25.660Z,12.35
2022-11-07T17:33:18.818Z,11.91
2022-11-07T17:38:17.658Z,11.00
2022-11-07T17:43:12.677Z,11.46
2022-11-07T17:48:08.360Z,12.29
2022-11-07T17:53:01.547Z,12.23
2022-11-07T17:57:55.614Z,12.02
2022-11-07T18:02:54.107Z,12.13
2022-11-07T18:07:50.962Z,11.93
2022-11-07T18:12:53.157Z,10.87
2022-11-07T18:17:53.849Z,10.64
2022-11-07T18:22:54.498Z,10.46
2022-11-07T18:27:55.913Z,10.08
2022-11-07T18:32:49.215Z,10.87
2022-11-07T18:37:45.588Z,10.59
2022-11-07T18:42:42.097Z,10.39
2022-11-07T18:47:36.100Z,11.21
2022-11-07T18:52:37.308Z,10.07
2022-11-07T18:57:36.583Z,10.80
2022-11-07T19:02:31.174Z,10.93
2022-11-07T19:07:24.861Z,9.62
2022-11-07T19:12:20.416Z,10.40
2022-11-07T19:17:18.724Z,9.52
2022-11-07T19:22:15.078Z,10.16
2022-11-07T19:27:13.829Z,9.27
2022-11-07T19:32:08.103Z,9.92
2022-11-07T19:37:07.937Z,9.19
2022-11-07T19:42:03.785Z,9.31
2022-11-07T19:47:00.906Z,9.92
2022-11-07T19:51:54.623Z,9.08
2022-11-07T19:56:53.258Z,9.91
2022-11-07T20:02:11.033Z,9.11
2022-11-07T20:07:10.390Z,9.19
2022-11-07T20:12:06.815Z,10.25
2022-11-07T20:17:05.120Z,9.13
2022-11-07T20:21:58.715Z,9.80
2022-11-07T20:26:53.963Z,10.38
2022-11-07T20:31:48.736Z,10.38
2022-11-07T20:36:42.870Z,10.45
2022-11-07T20:41:36.530Z,10.23
2022-11-07T20:46:41.274Z,9.74
2022-11-07T20:51:36.352Z,9.06
2022-11-07T20:56:34.321Z,9.58
2022-11-07T21:01:36.390Z,10.16
2022-11-07T21:06:33.615Z,10.38
2022-11-07T21:11:34.304Z,9.49
2022-11-07T21:16:34.624Z,10.26
2022-11-07T21:21:47.205Z,10.01
2022-11-07T21:26:42.173Z,8.70
2022-11-07T21:31:37.920Z,10.12
2022-11-07T21:36:33.808Z,10.07
2022-11-07T21:41:27.822Z,9.90
2022-11-07T21:46:25.589Z,9.87
2022-11-07T21:51:22.575Z,9.93
2022-11-07T21:56:17.731Z,9.44
2022-11-07T22:01:11.721Z,9.65
2022-11-07T22:06:10.363Z,10.11
2022-11-07T22:11:03.593Z,9.70
2022-11-07T22:16:12.109Z,9.43
2022-11-07T22:21:16.342Z,9.41
2022-11-07T22:26:13.533Z,9.78
2022-11-07T22:31:07.602Z,8.81
2022-11-07T22:36:01.555Z,9.98
2022-11-07T22:41:01.742Z,9.78
2022-11-07T22:45:54.914Z,9.83
2022-11-07T22:50:48.195Z,9.68
2022-11-07T22:55:41.460Z,9.61
2022-11-07T23:00:35.991Z,9.28
2022-11-07T23:05:30.577Z,9.38
2022-11-07T23:10:27.658Z,9.48
2022-11-07T23:15:21.644Z,8.15
2022-11-07T23:20:30.117Z,8.99
2022-11-07T23:25:26.839Z,9.01
2022-11-07T23:30:20.312Z,9.63
2022-11-07T23:35:13.679Z,9.26
2022-11-07T23:40:11.561Z,9.42
2022-11-07T23:45:22.424Z,9.61
2022-11-07T23:50:33.033Z,9.65
2022-11-07T23:55:43.948Z,9.46
